^^
Station Historical Data
Daily Summary for November 17, 2021 Units:  English    Metric   Both
Daily Weekly Monthly Yearly
  High: Low: Average:
Temperature: 48.6 °F 37.9 °F 43.7 °F
Dew Point: 47 °F 31.4 °F 40.1 °F
Humidity: 94% 77% 87%
Wind Speed: 7mph 2mph 3.6mph
Wind Gust: 11mph - -
Wind- - South
Pressure: 30.00 in 29.71 in -
Precipitation: 0.00 in    
 
 
Tabular Data for November 17, 2021
Time Temperature Dew Point Pressure Wind Wind Speed Wind Gust Humidity Rainfall Rate (Hourly) solar
00:00 38 °F 31.4 °F 30.00 in SE 3 mph 3 mph 77% 0.00 in 0 W/m2
00:05 38 °F 31.4 °F 30.00 in SE 3 mph 3 mph 77% 0.00 in 0 W/m2
00:10 38 °F 31.4 °F 30.00 in SSE 3 mph 4 mph 77% 0.00 in 0 W/m2
00:15 38 °F 31.7 °F 29.99 in SE 3 mph 4 mph 78% 0.00 in 0 W/m2
00:20 37.9 °F 31.7 °F 29.99 in ESE 3 mph 3 mph 78% 0.00 in 0 W/m2
00:25 38 °F 31.7 °F 29.99 in ESE 3 mph 4 mph 78% 0.00 in 0 W/m2
00:30 38 °F 31.7 °F 29.98 in SE 3 mph 4 mph 78% 0.00 in 0 W/m2
00:35 38 °F 32.1 °F 29.97 in SSE 3 mph 4 mph 79% 0.00 in 0 W/m2
00:40 38.1 °F 32.2 °F 29.97 in SE 4 mph 4 mph 79% 0.00 in 0 W/m2
00:45 38.1 °F 32.2 °F 29.97 in SE 4 mph 5 mph 79% 0.00 in 0 W/m2
00:50 38.2 °F 32.6 °F 29.97 in SSW 4 mph 4 mph 80% 0.00 in 0 W/m2
00:55 38.2 °F 32.6 °F 29.96 in SSE 4 mph 6 mph 80% 0.00 in 0 W/m2
01:00 38.4 °F 33.1 °F 29.96 in ESE 4 mph 4 mph 81% 0.00 in 0 W/m2
01:05 38.5 °F 33.2 °F 29.96 in South 4 mph 4 mph 81% 0.00 in 0 W/m2
01:10 38.6 °F 33.3 °F 29.95 in SE 4 mph 4 mph 81% 0.00 in 0 W/m2
01:15 38.7 °F 33.4 °F 29.94 in SSE 4 mph 4 mph 81% 0.00 in 0 W/m2
01:20 38.7 °F 33.7 °F 29.94 in SSE 4 mph 4 mph 82% 0.00 in 0 W/m2
01:25 38.6 °F 33.6 °F 29.94 in East 4 mph 4 mph 82% 0.00 in 0 W/m2
01:35 38.8 °F 33.8 °F 29.93 in SE 4 mph 4 mph 82% 0.00 in 0 W/m2
01:45 39 °F 34.3 °F 29.92 in SE 4 mph 5 mph 83% 0.00 in 0 W/m2
01:50 39.1 °F 34.4 °F 29.91 in SE 5 mph 5 mph 83% 0.00 in 0 W/m2
01:55 39.2 °F 34.8 °F 29.91 in SE 5 mph 6 mph 84% 0.00 in 0 W/m2
02:00 39.3 °F 34.9 °F 29.90 in SE 5 mph 6 mph 84% 0.00 in 0 W/m2
02:05 39.5 °F 35.1 °F 29.89 in SSE 5 mph 6 mph 84% 0.00 in 0 W/m2
02:10 39.9 °F 35.5 °F 29.90 in SSE 5 mph 8 mph 84% 0.00 in 0 W/m2
02:15 40.2 °F 35.8 °F 29.89 in SE 5 mph 8 mph 84% 0.00 in 0 W/m2
02:20 40.5 °F 36 °F 29.89 in SSE 6 mph 6 mph 84% 0.00 in 0 W/m2
02:25 40.8 °F 36 °F 29.89 in SE 6 mph 8 mph 83% 0.00 in 0 W/m2
02:30 41.1 °F 36.3 °F 29.88 in SSE 6 mph 8 mph 83% 0.00 in 0 W/m2
02:35 41.4 °F 36.6 °F 29.88 in South 6 mph 8 mph 83% 0.00 in 0 W/m2
02:40 41.7 °F 36.9 °F 29.88 in South 6 mph 7 mph 83% 0.00 in 0 W/m2
02:45 42 °F 36.9 °F 29.88 in South 6 mph 10 mph 82% 0.00 in 0 W/m2
02:50 42.1 °F 37 °F 29.87 in SE 7 mph 7 mph 82% 0.00 in 0 W/m2
02:55 42.3 °F 37.2 °F 29.87 in SSE 7 mph 10 mph 82% 0.00 in 0 W/m2
03:00 42.4 °F 37.3 °F 29.86 in SSE 7 mph 7 mph 82% 0.00 in 0 W/m2
03:05 42.5 °F 37.4 °F 29.86 in SSE 7 mph 8 mph 82% 0.00 in 0 W/m2
03:10 42.7 °F 37.6 °F 29.86 in SE 7 mph 8 mph 82% 0.00 in 0 W/m2
03:15 42.7 °F 37.6 °F 29.85 in SSW 6 mph 8 mph 82% 0.00 in 0 W/m2
03:20 42.7 °F 37.6 °F 29.85 in South 6 mph 7 mph 82% 0.00 in 0 W/m2
03:25 42.8 °F 38 °F 29.85 in East 6 mph 7 mph 83% 0.00 in 0 W/m2
03:30 43 °F 37.9 °F 29.85 in South 6 mph 7 mph 82% 0.00 in 0 W/m2
03:35 43.1 °F 38 °F 29.85 in South 5 mph 7 mph 82% 0.00 in 0 W/m2
03:40 43.4 °F 38.3 °F 29.85 in WNW 5 mph 5 mph 82% 0.00 in 0 W/m2
03:50 43.6 °F 38.5 °F 29.84 in WNW 5 mph 5 mph 82% 0.00 in 0 W/m2
03:55 43.5 °F 38.4 °F 29.84 in SSE 4 mph 5 mph 82% 0.00 in 0 W/m2
04:00 43.5 °F 38.4 °F 29.83 in SSE 5 mph 11 mph 82% 0.00 in 0 W/m2
04:05 43.5 °F 38.4 °F 29.82 in NE 6 mph 11 mph 82% 0.00 in 0 W/m2
04:10 43.6 °F 38.5 °F 29.82 in ESE 5 mph 8 mph 82% 0.00 in 0 W/m2
04:15 43.6 °F 38.5 °F 29.82 in SW 4 mph 8 mph 82% 0.00 in 0 W/m2
04:20 43.5 °F 38.4 °F 29.81 in SE 5 mph 5 mph 82% 0.00 in 0 W/m2
04:25 43.5 °F 38.7 °F 29.81 in South 5 mph 5 mph 83% 0.00 in 0 W/m2
04:30 43.4 °F 38.6 °F 29.81 in ESE 6 mph 6 mph 83% 0.00 in 0 W/m2
04:35 43.4 °F 38.6 °F 29.81 in ESE 5 mph 6 mph 83% 0.00 in 0 W/m2
04:40 43.3 °F 38.5 °F 29.81 in SSE 4 mph 5 mph 83% 0.00 in 0 W/m2
04:45 43.3 °F 38.5 °F 29.81 in WSW 5 mph 5 mph 83% 0.00 in 0 W/m2
04:50 43.2 °F 38.4 °F 29.81 in WNW 5 mph 5 mph 83% 0.00 in 0 W/m2
04:55 43.3 °F 38.5 °F 29.81 in NNW 4 mph 5 mph 83% 0.00 in 0 W/m2
05:00 43.2 °F 38.7 °F 29.81 in West 4 mph 4 mph 84% 0.00 in 0 W/m2
05:05 43.2 °F 38.7 °F 29.80 in WNW 4 mph 4 mph 84% 0.00 in 0 W/m2
05:10 43.3 °F 38.8 °F 29.80 in SSE 4 mph 4 mph 84% 0.00 in 0 W/m2
05:15 43.4 °F 38.9 °F 29.80 in WNW 4 mph 4 mph 84% 0.00 in 0 W/m2
05:20 43.5 °F 39 °F 29.80 in SE 4 mph 4 mph 84% 0.00 in 0 W/m2
05:25 43.6 °F 39.1 °F 29.80 in North 4 mph 4 mph 84% 0.00 in 0 W/m2
05:30 43.7 °F 39.2 °F 29.79 in NE 4 mph 5 mph 84% 0.00 in 0 W/m2
05:35 43.8 °F 39.3 °F 29.78 in ESE 4 mph 6 mph 84% 0.00 in 0 W/m2
05:40 43.9 °F 39.4 °F 29.78 in NW 4 mph 4 mph 84% 0.00 in 0 W/m2
05:45 44 °F 39.5 °F 29.78 in SE 4 mph 4 mph 84% 0.00 in 0 W/m2
05:50 44.1 °F 39.6 °F 29.77 in NNE 4 mph 4 mph 84% 0.00 in 0 W/m2
05:55 44.2 °F 39.7 °F 29.77 in WNW 3 mph 4 mph 84% 0.00 in 0 W/m2
06:00 44.3 °F 40.1 °F 29.77 in NNE 3 mph 4 mph 85% 0.00 in 0 W/m2
06:05 44.5 °F 40.3 °F 29.77 in NW 4 mph 7 mph 85% 0.00 in 0 W/m2
06:10 44.5 °F 40.3 °F 29.77 in SSE 4 mph 4 mph 85% 0.00 in 0 W/m2
06:15 44.5 °F 40.3 °F 29.77 in SW 4 mph 4 mph 85% 0.00 in 0 W/m2
06:20 44.5 °F 40.6 °F 29.77 in NNW 3 mph 4 mph 86% 0.00 in 0 W/m2
06:25 44.4 °F 40.5 °F 29.77 in North 3 mph 4 mph 86% 0.00 in 0 W/m2
06:30 44.4 °F 40.8 °F 29.77 in NNW 3 mph 4 mph 87% 0.00 in 0 W/m2
06:35 44.5 °F 40.9 °F 29.77 in ENE 3 mph 4 mph 87% 0.00 in 0 W/m2
06:40 44.6 °F 41 °F 29.77 in NNW 3 mph 4 mph 87% 0.00 in 0 W/m2
06:45 44.6 °F 41 °F 29.77 in NW 3 mph 4 mph 87% 0.00 in 0 W/m2
06:50 44.5 °F 41.2 °F 29.76 in NNE 3 mph 5 mph 88% 0.00 in 0 W/m2
07:00 44.5 °F 41.2 °F 29.77 in ENE 3 mph 3 mph 88% 0.00 in 0 W/m2
07:05 44.7 °F 41.7 °F 29.77 in North 3 mph 3 mph 89% 0.00 in 0 W/m2
07:10 44.7 °F 41.7 °F 29.77 in NNE 3 mph 3 mph 89% 0.00 in 0 W/m2
07:15 44.8 °F 41.8 °F 29.76 in NE 3 mph 3 mph 89% 0.00 in 0 W/m2
07:20 44.9 °F 41.9 °F 29.77 in ENE 3 mph 3 mph 89% 0.00 in 0 W/m2
07:25 44.8 °F 42 °F 29.77 in ESE 3 mph 3 mph 90% 0.00 in 0 W/m2
07:30 44.9 °F 42.1 °F 29.76 in NE 3 mph 3 mph 90% 0.00 in 0 W/m2
07:35 44.8 °F 42 °F 29.77 in NNE 3 mph 3 mph 90% 0.00 in 0 W/m2
07:40 44.9 °F 42.4 °F 29.76 in NNW 3 mph 3 mph 91% 0.00 in 0 W/m2
07:45 44.9 °F 42.4 °F 29.76 in SW 3 mph 3 mph 91% 0.00 in 0 W/m2
07:50 45 °F 42.5 °F 29.76 in NNW 3 mph 4 mph 91% 0.00 in 0 W/m2
07:55 45 °F 42.5 °F 29.76 in NW 3 mph 4 mph 91% 0.00 in 0 W/m2
08:00 45.1 °F 42.6 °F 29.76 in North 3 mph 3 mph 91% 0.00 in 5 W/m2
08:05 45.2 °F 42.7 °F 29.77 in NW 3 mph 3 mph 91% 0.00 in 5 W/m2
08:10 45.2 °F 42.7 °F 29.77 in SW 3 mph 3 mph 91% 0.00 in 7 W/m2
08:15 45.1 °F 42.6 °F 29.77 in NNW 3 mph 3 mph 91% 0.00 in 7 W/m2
08:20 45.1 °F 42.6 °F 29.77 in SSE 2 mph 2 mph 91% 0.00 in 7 W/m2
08:25 45.2 °F 43 °F 29.77 in WSW 2 mph 2 mph 92% 0.00 in 9 W/m2
08:30 45.3 °F 43.1 °F 29.77 in WNW 2 mph 3 mph 92% 0.00 in 11 W/m2
08:35 45.3 °F 43.1 °F 29.76 in WNW 2 mph 3 mph 92% 0.00 in 11 W/m2
08:40 45.4 °F 43.2 °F 29.76 in NE 2 mph 2 mph 92% 0.00 in 11 W/m2
08:45 45.5 °F 43.3 °F 29.76 in North 2 mph 4 mph 92% 0.00 in 9 W/m2
08:50 45.5 °F 43.3 °F 29.76 in NNE 2 mph 3 mph 92% 0.00 in 9 W/m2
08:55 45.5 °F 43.3 °F 29.76 in NW 2 mph 3 mph 92% 0.00 in 7 W/m2
09:00 45.5 °F 43.3 °F 29.76 in North 2 mph 4 mph 92% 0.00 in 7 W/m2
09:05 45.6 °F 43.4 °F 29.76 in SW 2 mph 4 mph 92% 0.00 in 9 W/m2
09:10 45.6 °F 43.4 °F 29.76 in NW 2 mph 2 mph 92% 0.00 in 7 W/m2
09:15 45.7 °F 43.8 °F 29.76 in WNW 2 mph 2 mph 93% 0.00 in 7 W/m2
09:20 45.6 °F 43.4 °F 29.76 in SE 2 mph 2 mph 92% 0.00 in 9 W/m2
09:25 45.6 °F 43.7 °F 29.76 in West 2 mph 2 mph 93% 0.00 in 14 W/m2
09:30 45.5 °F 43.3 °F 29.76 in NE 2 mph 2 mph 92% 0.00 in 14 W/m2
09:35 45.6 °F 43.7 °F 29.76 in NE 2 mph 2 mph 93% 0.00 in 12 W/m2
09:40 45.7 °F 43.8 °F 29.76 in NNE 2 mph 3 mph 93% 0.00 in 11 W/m2
09:45 45.8 °F 43.9 °F 29.76 in NNW 2 mph 3 mph 93% 0.00 in 14 W/m2
09:50 46 °F 44.1 °F 29.76 in NW 2 mph 2 mph 93% 0.00 in 9 W/m2
09:55 46 °F 44.1 °F 29.76 in WSW 2 mph 2 mph 93% 0.00 in 12 W/m2
10:00 45.9 °F 44 °F 29.76 in SW 2 mph 2 mph 93% 0.00 in 14 W/m2
10:05 45.9 °F 44 °F 29.76 in ENE 2 mph 3 mph 93% 0.00 in 21 W/m2
10:10 45.9 °F 44 °F 29.75 in ESE 2 mph 2 mph 93% 0.00 in 67 W/m2
10:15 46 °F 44.1 °F 29.74 in North 2 mph 3 mph 93% 0.00 in 53 W/m2
10:20 46.2 °F 44.3 °F 29.73 in SW 2 mph 3 mph 93% 0.00 in 74 W/m2
10:25 46.5 °F 44.6 °F 29.72 in NW 3 mph 3 mph 93% 0.00 in 81 W/m2
10:30 47 °F 45.4 °F 29.73 in ESE 3 mph 3 mph 94% 0.00 in 102 W/m2
10:35 47.1 °F 45.5 °F 29.73 in NNW 2 mph 3 mph 94% 0.00 in 67 W/m2
10:40 47.1 °F 45.5 °F 29.73 in North 2 mph 2 mph 94% 0.00 in 70 W/m2
10:45 47.2 °F 45.6 °F 29.73 in NNW 2 mph 3 mph 94% 0.00 in 51 W/m2
10:50 47.6 °F 46 °F 29.73 in NNE 3 mph 3 mph 94% 0.00 in 93 W/m2
10:55 47.9 °F 46.3 °F 29.74 in NE 3 mph 3 mph 94% 0.00 in 72 W/m2
11:00 48.3 °F 46.7 °F 29.74 in North 3 mph 4 mph 94% 0.00 in 74 W/m2
11:05 48.3 °F 46.7 °F 29.73 in North 3 mph 4 mph 94% 0.00 in 74 W/m2
11:10 48.4 °F 46.8 °F 29.73 in WNW 3 mph 3 mph 94% 0.00 in 63 W/m2
11:15 48.1 °F 46.5 °F 29.73 in NNE 3 mph 4 mph 94% 0.00 in 30 W/m2
11:20 48.1 °F 46.5 °F 29.73 in NNE 3 mph 3 mph 94% 0.00 in 33 W/m2
11:25 47.8 °F 45.9 °F 29.73 in NNW 3 mph 3 mph 93% 0.00 in 58 W/m2
11:30 47.5 °F 45.9 °F 29.73 in NW 3 mph 3 mph 94% 0.00 in 28 W/m2
11:35 47.8 °F 46.2 °F 29.73 in SE 3 mph 3 mph 94% 0.00 in 19 W/m2
11:40 48 °F 46.4 °F 29.72 in NE 3 mph 3 mph 94% 0.00 in 14 W/m2
11:45 48.1 °F 46.5 °F 29.72 in NE 2 mph 3 mph 94% 0.00 in 26 W/m2
11:50 48.4 °F 46.8 °F 29.72 in North 2 mph 2 mph 94% 0.00 in 51 W/m2
11:55 48.5 °F 46.9 °F 29.72 in NE 3 mph 3 mph 94% 0.00 in 39 W/m2
12:00 48.6 °F 47 °F 29.71 in SSW 3 mph 3 mph 94% 0.00 in 37 W/m2
12:05 48.6 °F 47 °F 29.71 in NW 3 mph 3 mph 94% 0.00 in 26 W/m2
12:10 48.5 °F 46.9 °F 29.71 in ENE 3 mph 3 mph 94% 0.00 in 37 W/m2
Sand Point, Michigan, USA
Compliments of Weather Underground - 2 mb